sensor_id;sensor_type;location;lat;lon;timestamp;P1;durP1;ratioP1;P2;durP2;ratioP2
5077;SDS011;2557;51.390;7.494;2022-07-22T00:00:59;10.70;;;9.57;;
5077;SDS011;2557;51.390;7.494;2022-07-22T00:03:25;12.10;;;9.87;;
5077;SDS011;2557;51.390;7.494;2022-07-22T00:05:51;10.67;;;9.57;;
5077;SDS011;2557;51.390;7.494;2022-07-22T00:08:17;10.63;;;9.47;;
5077;SDS011;2557;51.390;7.494;2022-07-22T00:10:43;10.47;;;9.13;;
5077;SDS011;2557;51.390;7.494;2022-07-22T00:13:09;10.67;;;9.63;;
5077;SDS011;2557;51.390;7.494;2022-07-22T00:15:35;11.10;;;10.00;;
5077;SDS011;2557;51.390;7.494;2022-07-22T00:18:01;11.73;;;10.63;;
5077;SDS011;2557;51.390;7.494;2022-07-22T00:20:27;10.80;;;9.90;;
5077;SDS011;2557;51.390;7.494;2022-07-22T00:22:53;11.10;;;10.10;;
5077;SDS011;2557;51.390;7.494;2022-07-22T00:25:19;11.87;;;10.67;;
5077;SDS011;2557;51.390;7.494;2022-07-22T00:27:45;11.50;;;10.40;;
5077;SDS011;2557;51.390;7.494;2022-07-22T00:30:11;14.90;;;11.50;;
5077;SDS011;2557;51.390;7.494;2022-07-22T00:32:37;14.20;;;12.70;;
5077;SDS011;2557;51.390;7.494;2022-07-22T00:35:03;14.80;;;12.43;;
5077;SDS011;2557;51.390;7.494;2022-07-22T00:37:30;18.67;;;13.97;;
5077;SDS011;2557;51.390;7.494;2022-07-22T00:39:56;18.37;;;13.50;;
5077;SDS011;2557;51.390;7.494;2022-07-22T00:42:22;14.63;;;12.87;;
5077;SDS011;2557;51.390;7.494;2022-07-22T00:44:48;15.30;;;12.30;;
5077;SDS011;2557;51.390;7.494;2022-07-22T00:47:14;12.63;;;11.30;;
5077;SDS011;2557;51.390;7.494;2022-07-22T00:49:40;10.93;;;9.90;;
5077;SDS011;2557;51.390;7.494;2022-07-22T00:52:06;9.10;;;8.30;;
5077;SDS011;2557;51.390;7.494;2022-07-22T00:54:32;9.27;;;8.40;;
5077;SDS011;2557;51.390;7.494;2022-07-22T00:56:58;11.10;;;8.20;;
5077;SDS011;2557;51.390;7.494;2022-07-22T00:59:24;8.67;;;7.47;;
5077;SDS011;2557;51.390;7.494;2022-07-22T01:01:50;8.33;;;7.50;;
5077;SDS011;2557;51.390;7.494;2022-07-22T01:04:16;9.83;;;8.87;;
5077;SDS011;2557;51.390;7.494;2022-07-22T01:06:43;8.47;;;7.67;;
5077;SDS011;2557;51.390;7.494;2022-07-22T01:09:09;10.53;;;8.47;;
5077;SDS011;2557;51.390;7.494;2022-07-22T01:11:36;13.83;;;11.27;;
5077;SDS011;2557;51.390;7.494;2022-07-22T01:14:02;11.50;;;9.40;;
5077;SDS011;2557;51.390;7.494;2022-07-22T01:16:28;11.00;;;9.90;;
5077;SDS011;2557;51.390;7.494;2022-07-22T01:18:54;11.93;;;10.40;;
5077;SDS011;2557;51.390;7.494;2022-07-22T01:21:20;14.10;;;11.57;;
5077;SDS011;2557;51.390;7.494;2022-07-22T01:23:46;14.17;;;12.77;;
5077;SDS011;2557;51.390;7.494;2022-07-22T01:26:12;15.03;;;13.53;;
5077;SDS011;2557;51.390;7.494;2022-07-22T01:28:39;15.13;;;13.33;;
5077;SDS011;2557;51.390;7.494;2022-07-22T01:31:05;16.10;;;14.50;;
5077;SDS011;2557;51.390;7.494;2022-07-22T01:33:31;20.03;;;15.63;;
5077;SDS011;2557;51.390;7.494;2022-07-22T01:35:58;15.57;;;13.97;;
5077;SDS011;2557;51.390;7.494;2022-07-22T01:38:24;17.97;;;15.63;;
5077;SDS011;2557;51.390;7.494;2022-07-22T01:40:50;17.00;;;15.20;;
5077;SDS011;2557;51.390;7.494;2022-07-22T01:43:16;15.43;;;13.80;;
5077;SDS011;2557;51.390;7.494;2022-07-22T01:45:44;16.13;;;14.43;;
5077;SDS011;2557;51.390;7.494;2022-07-22T01:48:10;16.80;;;14.80;;
5077;SDS011;2557;51.390;7.494;2022-07-22T01:50:37;17.67;;;15.23;;
5077;SDS011;2557;51.390;7.494;2022-07-22T01:53:03;17.80;;;16.00;;
5077;SDS011;2557;51.390;7.494;2022-07-22T01:55:29;15.93;;;14.33;;
5077;SDS011;2557;51.390;7.494;2022-07-22T01:57:55;21.70;;;16.57;;
5077;SDS011;2557;51.390;7.494;2022-07-22T02:00:21;17.27;;;15.17;;
5077;SDS011;2557;51.390;7.494;2022-07-22T02:02:47;16.67;;;14.80;;
5077;SDS011;2557;51.390;7.494;2022-07-22T02:05:13;17.63;;;15.83;;
5077;SDS011;2557;51.390;7.494;2022-07-22T02:07:39;16.93;;;15.13;;
5077;SDS011;2557;51.390;7.494;2022-07-22T02:10:05;16.80;;;15.10;;
5077;SDS011;2557;51.390;7.494;2022-07-22T02:12:32;16.80;;;14.30;;
5077;SDS011;2557;51.390;7.494;2022-07-22T02:14:58;17.57;;;14.70;;
5077;SDS011;2557;51.390;7.494;2022-07-22T02:17:24;18.20;;;15.80;;
5077;SDS011;2557;51.390;7.494;2022-07-22T02:19:50;20.20;;;16.57;;
5077;SDS011;2557;51.390;7.494;2022-07-22T02:22:16;21.27;;;16.27;;
5077;SDS011;2557;51.390;7.494;2022-07-22T02:24:42;18.50;;;16.63;;
5077;SDS011;2557;51.390;7.494;2022-07-22T02:27:08;17.80;;;15.50;;
5077;SDS011;2557;51.390;7.494;2022-07-22T02:29:34;18.20;;;15.50;;
5077;SDS011;2557;51.390;7.494;2022-07-22T02:32:00;18.20;;;14.80;;
5077;SDS011;2557;51.390;7.494;2022-07-22T02:34:26;20.23;;;17.03;;
5077;SDS011;2557;51.390;7.494;2022-07-22T02:36:52;23.97;;;17.20;;
5077;SDS011;2557;51.390;7.494;2022-07-22T02:39:18;21.40;;;16.97;;
5077;SDS011;2557;51.390;7.494;2022-07-22T02:41:45;18.63;;;16.63;;
5077;SDS011;2557;51.390;7.494;2022-07-22T02:44:11;20.63;;;16.03;;
5077;SDS011;2557;51.390;7.494;2022-07-22T02:46:37;21.50;;;16.90;;
5077;SDS011;2557;51.390;7.494;2022-07-22T02:49:03;23.37;;;17.63;;
5077;SDS011;2557;51.390;7.494;2022-07-22T02:51:30;18.63;;;16.70;;
5077;SDS011;2557;51.390;7.494;2022-07-22T02:53:56;22.63;;;16.50;;
5077;SDS011;2557;51.390;7.494;2022-07-22T02:56:22;19.57;;;16.47;;
5077;SDS011;2557;51.390;7.494;2022-07-22T02:58:48;20.97;;;15.97;;
5077;SDS011;2557;51.390;7.494;2022-07-22T03:01:17;18.77;;;16.40;;
5077;SDS011;2557;51.390;7.494;2022-07-22T03:03:44;18.87;;;15.63;;
5077;SDS011;2557;51.390;7.494;2022-07-22T03:06:10;18.70;;;15.83;;
5077;SDS011;2557;51.390;7.494;2022-07-22T03:08:36;20.50;;;14.70;;
5077;SDS011;2557;51.390;7.494;2022-07-22T03:11:02;17.67;;;15.77;;
5077;SDS011;2557;51.390;7.494;2022-07-22T03:13:29;19.13;;;15.20;;
5077;SDS011;2557;51.390;7.494;2022-07-22T03:15:55;18.57;;;16.60;;
5077;SDS011;2557;51.390;7.494;2022-07-22T03:18:21;29.20;;;17.03;;
5077;SDS011;2557;51.390;7.494;2022-07-22T03:20:47;18.93;;;15.57;;
5077;SDS011;2557;51.390;7.494;2022-07-22T03:23:13;16.93;;;14.20;;
5077;SDS011;2557;51.390;7.494;2022-07-22T03:25:39;16.73;;;13.40;;
5077;SDS011;2557;51.390;7.494;2022-07-22T03:28:06;16.30;;;12.90;;
5077;SDS011;2557;51.390;7.494;2022-07-22T03:30:32;14.47;;;13.00;;
5077;SDS011;2557;51.390;7.494;2022-07-22T03:32:58;17.10;;;12.73;;
5077;SDS011;2557;51.390;7.494;2022-07-22T03:35:24;14.03;;;11.27;;
5077;SDS011;2557;51.390;7.494;2022-07-22T03:37:50;12.63;;;10.70;;
5077;SDS011;2557;51.390;7.494;2022-07-22T03:40:16;16.37;;;11.17;;
5077;SDS011;2557;51.390;7.494;2022-07-22T03:42:42;15.20;;;12.43;;
5077;SDS011;2557;51.390;7.494;2022-07-22T03:45:09;14.20;;;12.53;;
5077;SDS011;2557;51.390;7.494;2022-07-22T03:47:35;16.80;;;11.23;;
5077;SDS011;2557;51.390;7.494;2022-07-22T03:50:01;18.87;;;12.30;;
5077;SDS011;2557;51.390;7.494;2022-07-22T03:52:30;16.00;;;12.60;;
5077;SDS011;2557;51.390;7.494;2022-07-22T03:54:56;19.23;;;14.03;;
5077;SDS011;2557;51.390;7.494;2022-07-22T03:57:22;17.17;;;13.10;;
5077;SDS011;2557;51.390;7.494;2022-07-22T03:59:48;17.67;;;13.03;;
5077;SDS011;2557;51.390;7.494;2022-07-22T04:02:14;18.97;;;12.13;;
5077;SDS011;2557;51.390;7.494;2022-07-22T04:04:40;17.00;;;12.87;;
5077;SDS011;2557;51.390;7.494;2022-07-22T04:07:06;17.07;;;12.60;;
5077;SDS011;2557;51.390;7.494;2022-07-22T04:09:32;25.87;;;12.97;;
5077;SDS011;2557;51.390;7.494;2022-07-22T04:11:58;20.90;;;14.23;;
5077;SDS011;2557;51.390;7.494;2022-07-22T04:14:24;22.10;;;13.93;;
5077;SDS011;2557;51.390;7.494;2022-07-22T04:16:50;22.00;;;13.40;;
5077;SDS011;2557;51.390;7.494;2022-07-22T04:19:16;20.73;;;14.50;;
5077;SDS011;2557;51.390;7.494;2022-07-22T04:21:42;19.03;;;14.87;;
5077;SDS011;2557;51.390;7.494;2022-07-22T04:24:08;20.00;;;13.77;;
5077;SDS011;2557;51.390;7.494;2022-07-22T04:26:34;28.07;;;14.20;;
5077;SDS011;2557;51.390;7.494;2022-07-22T04:29:01;19.37;;;13.53;;
5077;SDS011;2557;51.390;7.494;2022-07-22T04:31:27;19.90;;;13.23;;
5077;SDS011;2557;51.390;7.494;2022-07-22T04:33:53;20.57;;;14.40;;
5077;SDS011;2557;51.390;7.494;2022-07-22T04:36:19;27.27;;;14.80;;
5077;SDS011;2557;51.390;7.494;2022-07-22T04:38:45;15.73;;;11.17;;
5077;SDS011;2557;51.390;7.494;2022-07-22T04:41:11;19.80;;;13.70;;
5077;SDS011;2557;51.390;7.494;2022-07-22T04:43:37;19.43;;;11.10;;
5077;SDS011;2557;51.390;7.494;2022-07-22T04:46:03;24.77;;;10.43;;
5077;SDS011;2557;51.390;7.494;2022-07-22T04:48:30;15.90;;;10.63;;
5077;SDS011;2557;51.390;7.494;2022-07-22T04:50:59;17.67;;;11.03;;
5077;SDS011;2557;51.390;7.494;2022-07-22T04:53:25;13.60;;;9.07;;
5077;SDS011;2557;51.390;7.494;2022-07-22T04:55:51;19.17;;;11.00;;
5077;SDS011;2557;51.390;7.494;2022-07-22T04:58:17;16.40;;;9.83;;
5077;SDS011;2557;51.390;7.494;2022-07-22T05:00:43;18.27;;;10.33;;
5077;SDS011;2557;51.390;7.494;2022-07-22T05:03:09;17.03;;;8.53;;
5077;SDS011;2557;51.390;7.494;2022-07-22T05:05:35;11.23;;;8.57;;
5077;SDS011;2557;51.390;7.494;2022-07-22T05:08:01;17.90;;;9.60;;
5077;SDS011;2557;51.390;7.494;2022-07-22T05:10:27;18.43;;;9.70;;
5077;SDS011;2557;51.390;7.494;2022-07-22T05:12:53;15.97;;;9.37;;
5077;SDS011;2557;51.390;7.494;2022-07-22T05:15:19;16.33;;;9.30;;
5077;SDS011;2557;51.390;7.494;2022-07-22T05:17:45;13.90;;;8.53;;
5077;SDS011;2557;51.390;7.494;2022-07-22T05:20:11;17.40;;;9.10;;
5077;SDS011;2557;51.390;7.494;2022-07-22T05:22:38;14.57;;;9.40;;
5077;SDS011;2557;51.390;7.494;2022-07-22T05:25:04;15.80;;;9.30;;
5077;SDS011;2557;51.390;7.494;2022-07-22T05:27:30;14.80;;;9.40;;
5077;SDS011;2557;51.390;7.494;2022-07-22T05:29:56;15.80;;;9.37;;
5077;SDS011;2557;51.390;7.494;2022-07-22T05:32:23;13.93;;;9.13;;
5077;SDS011;2557;51.390;7.494;2022-07-22T05:34:49;18.43;;;8.10;;
5077;SDS011;2557;51.390;7.494;2022-07-22T05:37:15;15.27;;;9.23;;
5077;SDS011;2557;51.390;7.494;2022-07-22T05:39:42;15.50;;;9.50;;
5077;SDS011;2557;51.390;7.494;2022-07-22T05:42:08;13.50;;;8.00;;
5077;SDS011;2557;51.390;7.494;2022-07-22T05:44:34;11.70;;;7.90;;
5077;SDS011;2557;51.390;7.494;2022-07-22T05:47:00;12.07;;;8.70;;
5077;SDS011;2557;51.390;7.494;2022-07-22T05:49:26;24.73;;;9.83;;
5077;SDS011;2557;51.390;7.494;2022-07-22T05:51:53;14.87;;;8.10;;
5077;SDS011;2557;51.390;7.494;2022-07-22T05:54:19;12.90;;;8.73;;
5077;SDS011;2557;51.390;7.494;2022-07-22T05:56:45;13.80;;;7.90;;
5077;SDS011;2557;51.390;7.494;2022-07-22T05:59:11;11.53;;;7.47;;
5077;SDS011;2557;51.390;7.494;2022-07-22T06:01:37;12.83;;;8.50;;
5077;SDS011;2557;51.390;7.494;2022-07-22T06:04:03;14.90;;;9.33;;
5077;SDS011;2557;51.390;7.494;2022-07-22T06:06:29;12.53;;;9.10;;
5077;SDS011;2557;51.390;7.494;2022-07-22T06:08:55;11.00;;;8.50;;
5077;SDS011;2557;51.390;7.494;2022-07-22T06:11:21;16.30;;;8.80;;
5077;SDS011;2557;51.390;7.494;2022-07-22T06:13:47;12.30;;;8.87;;
5077;SDS011;2557;51.390;7.494;2022-07-22T06:16:13;16.87;;;9.17;;
5077;SDS011;2557;51.390;7.494;2022-07-22T06:18:39;14.00;;;9.37;;
5077;SDS011;2557;51.390;7.494;2022-07-22T06:21:05;18.40;;;9.13;;
5077;SDS011;2557;51.390;7.494;2022-07-22T06:23:32;13.40;;;10.10;;
5077;SDS011;2557;51.390;7.494;2022-07-22T06:25:58;12.30;;;9.67;;
5077;SDS011;2557;51.390;7.494;2022-07-22T06:28:24;13.87;;;10.03;;
5077;SDS011;2557;51.390;7.494;2022-07-22T06:30:50;21.07;;;12.30;;
5077;SDS011;2557;51.390;7.494;2022-07-22T06:33:16;16.23;;;11.00;;
5077;SDS011;2557;51.390;7.494;2022-07-22T06:35:42;18.30;;;10.97;;
5077;SDS011;2557;51.390;7.494;2022-07-22T06:38:08;17.27;;;11.80;;
5077;SDS011;2557;51.390;7.494;2022-07-22T06:40:35;17.53;;;13.50;;
5077;SDS011;2557;51.390;7.494;2022-07-22T06:43:01;12.90;;;10.50;;
5077;SDS011;2557;51.390;7.494;2022-07-22T06:45:27;15.87;;;11.30;;
5077;SDS011;2557;51.390;7.494;2022-07-22T06:47:54;16.27;;;11.40;;
5077;SDS011;2557;51.390;7.494;2022-07-22T06:50:20;19.37;;;12.07;;
5077;SDS011;2557;51.390;7.494;2022-07-22T06:52:46;20.27;;;11.93;;
5077;SDS011;2557;51.390;7.494;2022-07-22T06:55:13;17.00;;;12.57;;
5077;SDS011;2557;51.390;7.494;2022-07-22T06:57:40;17.73;;;13.43;;
5077;SDS011;2557;51.390;7.494;2022-07-22T07:00:06;14.67;;;11.50;;
5077;SDS011;2557;51.390;7.494;2022-07-22T07:02:33;16.30;;;11.43;;
5077;SDS011;2557;51.390;7.494;2022-07-22T07:04:59;14.37;;;11.37;;
5077;SDS011;2557;51.390;7.494;2022-07-22T07:07:25;13.27;;;11.07;;
5077;SDS011;2557;51.390;7.494;2022-07-22T07:09:51;12.07;;;10.80;;
5077;SDS011;2557;51.390;7.494;2022-07-22T07:12:17;22.50;;;13.17;;
5077;SDS011;2557;51.390;7.494;2022-07-22T07:14:43;16.30;;;11.83;;
5077;SDS011;2557;51.390;7.494;2022-07-22T07:17:09;12.40;;;9.63;;
5077;SDS011;2557;51.390;7.494;2022-07-22T07:19:35;11.10;;;10.00;;
5077;SDS011;2557;51.390;7.494;2022-07-22T07:22:01;11.17;;;9.47;;
5077;SDS011;2557;51.390;7.494;2022-07-22T07:24:27;12.03;;;8.67;;
5077;SDS011;2557;51.390;7.494;2022-07-22T07:26:53;15.37;;;8.10;;
5077;SDS011;2557;51.390;7.494;2022-07-22T07:29:19;19.10;;;9.70;;
5077;SDS011;2557;51.390;7.494;2022-07-22T07:31:47;9.73;;;8.83;;
5077;SDS011;2557;51.390;7.494;2022-07-22T07:34:13;13.00;;;9.63;;
5077;SDS011;2557;51.390;7.494;2022-07-22T07:36:39;9.37;;;7.40;;
5077;SDS011;2557;51.390;7.494;2022-07-22T07:39:05;11.67;;;7.10;;
5077;SDS011;2557;51.390;7.494;2022-07-22T07:41:31;12.33;;;8.17;;
5077;SDS011;2557;51.390;7.494;2022-07-22T07:43:57;18.10;;;7.80;;
5077;SDS011;2557;51.390;7.494;2022-07-22T07:46:23;10.33;;;7.47;;
5077;SDS011;2557;51.390;7.494;2022-07-22T07:48:49;11.87;;;7.93;;
5077;SDS011;2557;51.390;7.494;2022-07-22T07:51:15;18.10;;;7.97;;
5077;SDS011;2557;51.390;7.494;2022-07-22T07:53:41;14.00;;;9.37;;
5077;SDS011;2557;51.390;7.494;2022-07-22T07:56:07;11.27;;;7.70;;
5077;SDS011;2557;51.390;7.494;2022-07-22T07:58:33;10.40;;;7.27;;
5077;SDS011;2557;51.390;7.494;2022-07-22T08:00:59;13.77;;;6.77;;
5077;SDS011;2557;51.390;7.494;2022-07-22T08:03:25;10.10;;;7.97;;
5077;SDS011;2557;51.390;7.494;2022-07-22T08:05:51;16.10;;;7.40;;
5077;SDS011;2557;51.390;7.494;2022-07-22T08:08:17;8.97;;;7.43;;
5077;SDS011;2557;51.390;7.494;2022-07-22T08:10:43;19.60;;;10.60;;
5077;SDS011;2557;51.390;7.494;2022-07-22T08:13:09;10.13;;;6.50;;
5077;SDS011;2557;51.390;7.494;2022-07-22T08:15:35;17.37;;;8.73;;
5077;SDS011;2557;51.390;7.494;2022-07-22T08:18:01;11.13;;;7.10;;
5077;SDS011;2557;51.390;7.494;2022-07-22T08:20:28;13.60;;;8.70;;
5077;SDS011;2557;51.390;7.494;2022-07-22T08:22:54;13.53;;;8.00;;
5077;SDS011;2557;51.390;7.494;2022-07-22T08:25:20;10.30;;;6.90;;
5077;SDS011;2557;51.390;7.494;2022-07-22T08:27:47;11.20;;;7.10;;
5077;SDS011;2557;51.390;7.494;2022-07-22T08:30:13;15.60;;;8.20;;
5077;SDS011;2557;51.390;7.494;2022-07-22T08:32:39;14.60;;;8.27;;
5077;SDS011;2557;51.390;7.494;2022-07-22T08:35:05;9.27;;;8.20;;
5077;SDS011;2557;51.390;7.494;2022-07-22T08:37:31;16.50;;;7.80;;
5077;SDS011;2557;51.390;7.494;2022-07-22T08:39:57;12.00;;;8.00;;
5077;SDS011;2557;51.390;7.494;2022-07-22T08:42:24;7.77;;;6.87;;
5077;SDS011;2557;51.390;7.494;2022-07-22T08:44:50;15.47;;;7.90;;
5077;SDS011;2557;51.390;7.494;2022-07-22T08:47:21;15.17;;;8.80;;
5077;SDS011;2557;51.390;7.494;2022-07-22T08:49:47;12.40;;;7.90;;
5077;SDS011;2557;51.390;7.494;2022-07-22T08:52:14;14.40;;;8.43;;
5077;SDS011;2557;51.390;7.494;2022-07-22T08:54:40;9.10;;;6.80;;
5077;SDS011;2557;51.390;7.494;2022-07-22T08:57:06;11.90;;;7.37;;
5077;SDS011;2557;51.390;7.494;2022-07-22T08:59:32;14.03;;;8.03;;
5077;SDS011;2557;51.390;7.494;2022-07-22T09:02:01;11.37;;;7.80;;
5077;SDS011;2557;51.390;7.494;2022-07-22T09:04:28;11.00;;;7.33;;
5077;SDS011;2557;51.390;7.494;2022-07-22T09:06:54;10.97;;;7.47;;
5077;SDS011;2557;51.390;7.494;2022-07-22T09:09:28;13.20;;;8.27;;
5077;SDS011;2557;51.390;7.494;2022-07-22T09:12:05;14.07;;;7.53;;
5077;SDS011;2557;51.390;7.494;2022-07-22T09:14:48;8.30;;;6.83;;
5077;SDS011;2557;51.390;7.494;2022-07-22T09:17:24;9.83;;;6.60;;
5077;SDS011;2557;51.390;7.494;2022-07-22T09:19:50;18.60;;;8.40;;
5077;SDS011;2557;51.390;7.494;2022-07-22T09:27:42;8.40;;;6.83;;
5077;SDS011;2557;51.390;7.494;2022-07-22T09:30:13;17.53;;;8.10;;
5077;SDS011;2557;51.390;7.494;2022-07-22T09:32:39;11.53;;;8.27;;
5077;SDS011;2557;51.390;7.494;2022-07-22T09:35:06;10.77;;;8.40;;
5077;SDS011;2557;51.390;7.494;2022-07-22T09:37:32;9.07;;;8.03;;
5077;SDS011;2557;51.390;7.494;2022-07-22T09:40:20;14.73;;;7.70;;
5077;SDS011;2557;51.390;7.494;2022-07-22T09:42:46;14.67;;;7.80;;
5077;SDS011;2557;51.390;7.494;2022-07-22T09:45:12;14.47;;;9.40;;
5077;SDS011;2557;51.390;7.494;2022-07-22T09:47:42;11.23;;;8.00;;
5077;SDS011;2557;51.390;7.494;2022-07-22T09:50:19;12.07;;;7.73;;
5077;SDS011;2557;51.390;7.494;2022-07-22T09:52:45;15.90;;;11.43;;
5077;SDS011;2557;51.390;7.494;2022-07-22T09:55:15;17.50;;;9.00;;
5077;SDS011;2557;51.390;7.494;2022-07-22T09:57:41;21.13;;;11.27;;
5077;SDS011;2557;51.390;7.494;2022-07-22T10:00:07;12.93;;;8.87;;
5077;SDS011;2557;51.390;7.494;2022-07-22T10:02:36;13.63;;;8.13;;
5077;SDS011;2557;51.390;7.494;2022-07-22T10:05:05;11.83;;;8.57;;
5077;SDS011;2557;51.390;7.494;2022-07-22T10:07:31;19.73;;;7.83;;
5077;SDS011;2557;51.390;7.494;2022-07-22T10:09:57;9.87;;;8.40;;
5077;SDS011;2557;51.390;7.494;2022-07-22T10:12:23;12.20;;;7.33;;
5077;SDS011;2557;51.390;7.494;2022-07-22T10:14:51;11.00;;;8.60;;
5077;SDS011;2557;51.390;7.494;2022-07-22T10:17:17;14.00;;;9.10;;
5077;SDS011;2557;51.390;7.494;2022-07-22T10:19:43;13.47;;;9.07;;
5077;SDS011;2557;51.390;7.494;2022-07-22T10:24:58;7.07;;;6.23;;
5077;SDS011;2557;51.390;7.494;2022-07-22T10:27:43;9.37;;;7.47;;
5077;SDS011;2557;51.390;7.494;2022-07-22T10:30:09;8.13;;;7.33;;
5077;SDS011;2557;51.390;7.494;2022-07-22T10:32:36;14.77;;;9.77;;
5077;SDS011;2557;51.390;7.494;2022-07-22T10:35:18;12.60;;;8.80;;
5077;SDS011;2557;51.390;7.494;2022-07-22T10:37:45;10.80;;;9.27;;
5077;SDS011;2557;51.390;7.494;2022-07-22T10:45:24;10.77;;;9.67;;
5077;SDS011;2557;51.390;7.494;2022-07-22T10:47:57;10.00;;;7.37;;
5077;SDS011;2557;51.390;7.494;2022-07-22T10:53:05;13.33;;;9.67;;
5077;SDS011;2557;51.390;7.494;2022-07-22T10:55:32;13.33;;;8.93;;
5077;SDS011;2557;51.390;7.494;2022-07-22T10:57:59;9.93;;;8.77;;
5077;SDS011;2557;51.390;7.494;2022-07-22T11:00:25;11.87;;;8.90;;
5077;SDS011;2557;51.390;7.494;2022-07-22T11:02:51;11.63;;;10.40;;
5077;SDS011;2557;51.390;7.494;2022-07-22T11:05:26;16.57;;;12.53;;
5077;SDS011;2557;51.390;7.494;2022-07-22T11:07:52;14.63;;;12.60;;
5077;SDS011;2557;51.390;7.494;2022-07-22T11:10:19;19.20;;;16.90;;
5077;SDS011;2557;51.390;7.494;2022-07-22T11:12:46;16.40;;;13.90;;
5077;SDS011;2557;51.390;7.494;2022-07-22T11:15:12;11.63;;;10.40;;
5077;SDS011;2557;51.390;7.494;2022-07-22T11:17:38;18.73;;;12.60;;
5077;SDS011;2557;51.390;7.494;2022-07-22T11:20:06;18.33;;;13.30;;
5077;SDS011;2557;51.390;7.494;2022-07-22T11:22:33;19.30;;;14.83;;
5077;SDS011;2557;51.390;7.494;2022-07-22T11:25:00;15.20;;;13.33;;
5077;SDS011;2557;51.390;7.494;2022-07-22T11:27:26;17.13;;;13.40;;
5077;SDS011;2557;51.390;7.494;2022-07-22T11:29:53;19.47;;;12.33;;
5077;SDS011;2557;51.390;7.494;2022-07-22T11:32:20;21.20;;;13.70;;
5077;SDS011;2557;51.390;7.494;2022-07-22T11:34:46;18.63;;;13.03;;
5077;SDS011;2557;51.390;7.494;2022-07-22T11:37:13;16.20;;;12.53;;
5077;SDS011;2557;51.390;7.494;2022-07-22T11:39:39;15.47;;;12.97;;
5077;SDS011;2557;51.390;7.494;2022-07-22T11:42:06;20.87;;;14.03;;
5077;SDS011;2557;51.390;7.494;2022-07-22T11:44:33;15.60;;;13.03;;
5077;SDS011;2557;51.390;7.494;2022-07-22T11:47:00;17.33;;;13.10;;
5077;SDS011;2557;51.390;7.494;2022-07-22T11:49:27;13.93;;;12.40;;
5077;SDS011;2557;51.390;7.494;2022-07-22T11:51:54;17.27;;;12.17;;
5077;SDS011;2557;51.390;7.494;2022-07-22T11:54:20;17.73;;;14.23;;
5077;SDS011;2557;51.390;7.494;2022-07-22T11:56:47;20.80;;;14.13;;
5077;SDS011;2557;51.390;7.494;2022-07-22T11:59:14;19.23;;;14.50;;
5077;SDS011;2557;51.390;7.494;2022-07-22T12:01:40;25.60;;;16.43;;
5077;SDS011;2557;51.390;7.494;2022-07-22T12:04:07;19.00;;;14.03;;
5077;SDS011;2557;51.390;7.494;2022-07-22T12:06:34;15.03;;;13.43;;
5077;SDS011;2557;51.390;7.494;2022-07-22T12:09:12;16.23;;;13.63;;
5077;SDS011;2557;51.390;7.494;2022-07-22T12:11:45;17.97;;;13.70;;
5077;SDS011;2557;51.390;7.494;2022-07-22T12:14:13;27.27;;;15.23;;
5077;SDS011;2557;51.390;7.494;2022-07-22T12:16:39;30.00;;;15.20;;
5077;SDS011;2557;51.390;7.494;2022-07-22T12:19:07;15.20;;;13.40;;
5077;SDS011;2557;51.390;7.494;2022-07-22T12:21:53;16.30;;;12.43;;
5077;SDS011;2557;51.390;7.494;2022-07-22T12:24:30;15.83;;;13.70;;
5077;SDS011;2557;51.390;7.494;2022-07-22T12:26:58;16.33;;;12.60;;
5077;SDS011;2557;51.390;7.494;2022-07-22T12:29:25;16.10;;;13.00;;
5077;SDS011;2557;51.390;7.494;2022-07-22T12:32:02;16.10;;;13.80;;
5077;SDS011;2557;51.390;7.494;2022-07-22T12:37:01;19.97;;;15.30;;
5077;SDS011;2557;51.390;7.494;2022-07-22T12:39:36;15.37;;;13.13;;
5077;SDS011;2557;51.390;7.494;2022-07-22T12:42:02;17.90;;;14.57;;
5077;SDS011;2557;51.390;7.494;2022-07-22T12:44:28;14.33;;;12.83;;
5077;SDS011;2557;51.390;7.494;2022-07-22T12:46:55;16.80;;;13.30;;
5077;SDS011;2557;51.390;7.494;2022-07-22T12:49:22;19.00;;;13.67;;
5077;SDS011;2557;51.390;7.494;2022-07-22T12:52:08;14.47;;;12.97;;
5077;SDS011;2557;51.390;7.494;2022-07-22T12:54:36;18.07;;;13.90;;
5077;SDS011;2557;51.390;7.494;2022-07-22T12:57:02;16.17;;;14.17;;
5077;SDS011;2557;51.390;7.494;2022-07-22T12:59:28;15.93;;;14.30;;
5077;SDS011;2557;51.390;7.494;2022-07-22T13:01:54;17.27;;;13.37;;
5077;SDS011;2557;51.390;7.494;2022-07-22T13:04:21;15.33;;;13.73;;
5077;SDS011;2557;51.390;7.494;2022-07-22T13:06:47;13.70;;;12.30;;
5077;SDS011;2557;51.390;7.494;2022-07-22T13:09:13;12.90;;;11.70;;
5077;SDS011;2557;51.390;7.494;2022-07-22T13:11:39;23.47;;;12.77;;
5077;SDS011;2557;51.390;7.494;2022-07-22T13:14:08;14.87;;;13.20;;
5077;SDS011;2557;51.390;7.494;2022-07-22T13:16:34;14.33;;;12.10;;
5077;SDS011;2557;51.390;7.494;2022-07-22T13:19:00;15.07;;;13.27;;
5077;SDS011;2557;51.390;7.494;2022-07-22T13:21:26;13.67;;;12.30;;
5077;SDS011;2557;51.390;7.494;2022-07-22T13:23:52;17.83;;;13.13;;
5077;SDS011;2557;51.390;7.494;2022-07-22T13:26:18;14.87;;;12.07;;
5077;SDS011;2557;51.390;7.494;2022-07-22T13:28:45;27.30;;;13.87;;
5077;SDS011;2557;51.390;7.494;2022-07-22T13:31:11;15.90;;;12.27;;
5077;SDS011;2557;51.390;7.494;2022-07-22T13:33:37;15.30;;;13.80;;
5077;SDS011;2557;51.390;7.494;2022-07-22T13:36:04;17.07;;;12.47;;
5077;SDS011;2557;51.390;7.494;2022-07-22T13:38:30;27.90;;;20.97;;
5077;SDS011;2557;51.390;7.494;2022-07-22T13:40:56;42.83;;;15.13;;
5077;SDS011;2557;51.390;7.494;2022-07-22T13:43:24;21.00;;;14.30;;
5077;SDS011;2557;51.390;7.494;2022-07-22T13:45:50;13.30;;;11.90;;
5077;SDS011;2557;51.390;7.494;2022-07-22T13:48:16;43.80;;;18.77;;
5077;SDS011;2557;51.390;7.494;2022-07-22T13:50:44;17.93;;;13.60;;
5077;SDS011;2557;51.390;7.494;2022-07-22T13:53:10;19.13;;;12.63;;
5077;SDS011;2557;51.390;7.494;2022-07-22T13:55:39;15.97;;;13.00;;
5077;SDS011;2557;51.390;7.494;2022-07-22T13:58:05;13.13;;;11.70;;
5077;SDS011;2557;51.390;7.494;2022-07-22T14:00:31;14.00;;;12.10;;
5077;SDS011;2557;51.390;7.494;2022-07-22T14:02:57;14.00;;;11.57;;
5077;SDS011;2557;51.390;7.494;2022-07-22T14:05:23;14.00;;;12.60;;
5077;SDS011;2557;51.390;7.494;2022-07-22T14:07:49;13.70;;;11.60;;
5077;SDS011;2557;51.390;7.494;2022-07-22T14:10:15;14.30;;;11.90;;
5077;SDS011;2557;51.390;7.494;2022-07-22T14:12:41;13.33;;;11.73;;
5077;SDS011;2557;51.390;7.494;2022-07-22T14:15:08;12.20;;;10.97;;
5077;SDS011;2557;51.390;7.494;2022-07-22T14:17:34;16.60;;;11.87;;
5077;SDS011;2557;51.390;7.494;2022-07-22T14:20:00;14.60;;;11.43;;
5077;SDS011;2557;51.390;7.494;2022-07-22T14:22:27;15.70;;;12.03;;
5077;SDS011;2557;51.390;7.494;2022-07-22T14:24:53;12.90;;;10.87;;
5077;SDS011;2557;51.390;7.494;2022-07-22T14:27:19;12.37;;;11.17;;
5077;SDS011;2557;51.390;7.494;2022-07-22T14:29:45;14.17;;;11.20;;
5077;SDS011;2557;51.390;7.494;2022-07-22T14:32:11;21.50;;;14.30;;
5077;SDS011;2557;51.390;7.494;2022-07-22T14:34:37;28.33;;;13.30;;
5077;SDS011;2557;51.390;7.494;2022-07-22T14:37:03;14.80;;;11.80;;
5077;SDS011;2557;51.390;7.494;2022-07-22T14:39:29;13.13;;;11.70;;
5077;SDS011;2557;51.390;7.494;2022-07-22T14:41:55;12.73;;;11.43;;
5077;SDS011;2557;51.390;7.494;2022-07-22T14:44:21;13.03;;;11.73;;
5077;SDS011;2557;51.390;7.494;2022-07-22T14:46:47;17.07;;;12.53;;
5077;SDS011;2557;51.390;7.494;2022-07-22T14:49:13;15.77;;;12.97;;
5077;SDS011;2557;51.390;7.494;2022-07-22T14:51:40;14.60;;;10.90;;
5077;SDS011;2557;51.390;7.494;2022-07-22T14:54:06;13.70;;;12.37;;
5077;SDS011;2557;51.390;7.494;2022-07-22T14:56:34;14.60;;;10.60;;
5077;SDS011;2557;51.390;7.494;2022-07-22T14:59:00;12.90;;;11.60;;
5077;SDS011;2557;51.390;7.494;2022-07-22T15:01:27;13.87;;;12.20;;
5077;SDS011;2557;51.390;7.494;2022-07-22T15:03:53;13.33;;;12.13;;
5077;SDS011;2557;51.390;7.494;2022-07-22T15:06:19;23.97;;;11.90;;
5077;SDS011;2557;51.390;7.494;2022-07-22T15:08:45;15.03;;;11.70;;